Atwood, California
Current Conditions -  °F | °C
As of 6:53 PM on Saturday 25 Oct 2014 (Local Time) from KFUL Reporting Station
Clear Clear  
Wind Chill: 72°   Ceiling: Unl
Heat Index: 72°   Visibility: 10mi
Dew Point: 52°   Wind: 3mph
Humidity: 49%   Direction: 270°W
Pressure: 29.98"   Gusts: NA
Location:  33.87°N, 117.83°W
Report Text: KFUL 260153Z 27003KT 10SM CLR 22/11 A2998 RMK AO2 SLP151 T02220111 $
Loading
Personal Weather Stations






























Interactive Weather Map New forecast layout! Learn more

10-Day Weather Forecast

Advertisements
Track Severe Weather on mobile